createdAt,value
2019-02-07T00:02:25.817Z,10.85
2019-02-07T00:04:56.433Z,10.95
2019-02-07T00:07:26.757Z,9.60
2019-02-07T00:09:57.111Z,10.23
2019-02-07T00:12:27.483Z,10.38
2019-02-07T00:14:58.031Z,11.05
2019-02-07T00:17:28.489Z,10.55
2019-02-07T00:19:59.155Z,9.73
2019-02-07T00:22:29.822Z,11.12
2019-02-07T00:25:00.396Z,10.18
2019-02-07T00:27:31.006Z,9.50
2019-02-07T00:30:01.996Z,10.18
2019-02-07T00:32:33.062Z,9.35
2019-02-07T00:35:03.878Z,9.70
2019-02-07T00:37:34.582Z,9.75
2019-02-07T00:40:12.888Z,10.08
2019-02-07T00:42:43.596Z,10.10
2019-02-07T00:45:17.376Z,10.53
2019-02-07T00:47:47.795Z,10.68
2019-02-07T00:50:19.071Z,10.43
2019-02-07T00:52:49.699Z,10.58
2019-02-07T00:55:21.473Z,10.38
2019-02-07T00:57:51.800Z,9.78
2019-02-07T01:00:27.229Z,10.72
2019-02-07T01:02:57.627Z,10.35
2019-02-07T01:05:28.278Z,10.88
2019-02-07T01:07:59.256Z,8.78
2019-02-07T01:10:30.742Z,9.68
2019-02-07T01:13:01.360Z,9.73
2019-02-07T01:15:31.955Z,9.98
2019-02-07T01:18:02.611Z,9.25
2019-02-07T01:20:32.989Z,9.63
2019-02-07T01:23:03.580Z,9.30
2019-02-07T01:25:34.436Z,8.58
2019-02-07T01:28:05.054Z,8.80
2019-02-07T01:30:35.377Z,8.63
2019-02-07T01:33:05.773Z,8.80
2019-02-07T01:35:36.881Z,9.70
2019-02-07T01:38:07.216Z,10.58
2019-02-07T01:40:37.860Z,8.95
2019-02-07T01:43:08.519Z,8.80
2019-02-07T01:45:38.846Z,9.30
2019-02-07T01:48:09.457Z,9.38
2019-02-07T01:50:39.852Z,8.98
2019-02-07T01:53:10.497Z,10.03
2019-02-07T01:55:40.815Z,9.88
2019-02-07T01:58:11.502Z,9.05
2019-02-07T02:00:42.143Z,9.73
2019-02-07T02:03:12.775Z,8.35
2019-02-07T02:05:43.623Z,10.00
2019-02-07T02:08:14.577Z,9.90
2019-02-07T02:10:45.233Z,8.98
2019-02-07T02:13:15.882Z,9.55
2019-02-07T02:15:46.585Z,8.73
2019-02-07T02:18:17.228Z,9.70
2019-02-07T02:20:47.853Z,9.25
2019-02-07T02:23:18.257Z,9.80
2019-02-07T02:25:48.915Z,10.13
2019-02-07T02:28:19.511Z,8.55
2019-02-07T02:30:49.890Z,10.28
2019-02-07T02:33:20.226Z,9.55
2019-02-07T02:35:50.852Z,10.38
2019-02-07T02:38:21.470Z,10.48
2019-02-07T02:40:51.878Z,9.95
2019-02-07T02:43:22.234Z,10.45
2019-02-07T02:45:52.882Z,9.95
2019-02-07T02:48:23.200Z,9.00
2019-02-07T02:50:53.589Z,9.60
2019-02-07T02:53:23.979Z,11.50
2019-02-07T02:55:54.411Z,9.55
2019-02-07T02:58:25.186Z,10.32
2019-02-07T03:00:57.681Z,10.28
2019-02-07T03:03:35.383Z,10.03
2019-02-07T03:06:10.081Z,9.43
2019-02-07T03:08:49.097Z,9.80
2019-02-07T03:11:33.165Z,10.32
2019-02-07T03:14:14.413Z,10.60
2019-02-07T03:16:50.178Z,9.38
2019-02-07T03:19:38.356Z,10.72
2019-02-07T03:22:22.214Z,9.48
2019-02-07T03:25:00.280Z,9.43
2019-02-07T03:27:41.443Z,10.40
2019-02-07T03:30:23.266Z,8.93
2019-02-07T03:32:57.864Z,9.28
2019-02-07T03:35:32.394Z,8.75
2019-02-07T03:38:10.225Z,8.85
2019-02-07T03:40:45.106Z,9.40
2019-02-07T03:43:33.685Z,8.53
2019-02-07T03:46:22.058Z,9.03
2019-02-07T03:48:54.539Z,9.60
2019-02-07T03:51:26.546Z,9.53
2019-02-07T03:54:07.146Z,9.03
2019-02-07T03:56:42.057Z,9.48
2019-02-07T03:59:14.734Z,9.73
2019-02-07T04:01:47.473Z,10.10
2019-02-07T04:04:19.734Z,9.60
2019-02-07T04:06:51.775Z,9.50
2019-02-07T04:09:27.025Z,8.88
2019-02-07T04:12:04.784Z,10.40
2019-02-07T04:14:53.476Z,9.00
2019-02-07T04:17:41.683Z,9.38
2019-02-07T04:20:31.597Z,9.48
2019-02-07T04:23:06.453Z,9.33
2019-02-07T04:25:50.568Z,9.78
2019-02-07T04:28:25.620Z,9.48
2019-02-07T04:31:06.284Z,9.45
2019-02-07T04:33:44.371Z,8.98
2019-02-07T04:36:33.296Z,9.33
2019-02-07T04:39:07.229Z,9.63
2019-02-07T04:41:45.292Z,8.73
2019-02-07T04:44:29.359Z,9.85
2019-02-07T04:47:01.418Z,10.25
2019-02-07T04:49:49.640Z,10.90
2019-02-07T04:52:21.614Z,12.88
2019-02-07T04:55:02.128Z,9.00
2019-02-07T04:57:50.374Z,10.13
2019-02-07T05:00:25.210Z,9.18
2019-02-07T05:03:03.340Z,9.60
2019-02-07T05:05:38.745Z,9.83
2019-02-07T05:08:11.023Z,8.70
2019-02-07T05:10:59.630Z,10.20
2019-02-07T05:13:31.895Z,9.88
2019-02-07T05:16:09.864Z,10.18
2019-02-07T05:19:00.116Z,10.38
2019-02-07T05:21:43.891Z,9.30
2019-02-07T05:24:16.139Z,10.18
2019-02-07T05:26:57.451Z,10.32
2019-02-07T05:29:44.503Z,9.78
2019-02-07T05:32:32.526Z,10.23
2019-02-07T05:35:20.633Z,11.55
2019-02-07T05:38:07.454Z,10.58
2019-02-07T05:40:56.073Z,10.45
2019-02-07T05:43:30.948Z,11.60
2019-02-07T05:46:03.389Z,10.70
2019-02-07T05:48:43.914Z,11.38
2019-02-07T05:51:15.896Z,10.93
2019-02-07T05:53:51.021Z,10.50
2019-02-07T05:56:23.494Z,10.20
2019-02-07T05:59:11.431Z,11.43
2019-02-07T06:01:46.189Z,10.90
2019-02-07T06:04:34.668Z,9.60
2019-02-07T06:07:18.554Z,11.10
2019-02-07T06:10:08.876Z,11.80
2019-02-07T06:12:43.684Z,12.33
2019-02-07T06:15:15.694Z,12.60
2019-02-07T06:17:50.593Z,10.98
2019-02-07T06:20:38.051Z,12.10
2019-02-07T06:23:16.440Z,11.85
2019-02-07T06:26:04.587Z,11.75
2019-02-07T06:28:37.079Z,13.05
2019-02-07T06:31:25.703Z,12.43
2019-02-07T06:34:15.822Z,12.20
2019-02-07T06:36:47.825Z,12.95
2019-02-07T06:39:22.528Z,12.65
2019-02-07T06:42:03.726Z,12.13
2019-02-07T06:44:44.835Z,13.78
2019-02-07T06:47:33.567Z,13.38
2019-02-07T06:50:12.958Z,12.68
2019-02-07T06:53:01.471Z,13.13
2019-02-07T06:55:33.794Z,13.00
2019-02-07T06:58:06.066Z,12.65
2019-02-07T07:00:44.284Z,12.78
2019-02-07T07:03:19.256Z,13.55
2019-02-07T07:05:51.479Z,12.33
2019-02-07T07:08:29.621Z,12.05
2019-02-07T07:11:07.049Z,12.23
2019-02-07T07:13:50.806Z,13.60
2019-02-07T07:16:29.025Z,12.45
2019-02-07T07:19:01.082Z,14.30
2019-02-07T07:21:39.392Z,14.95
2019-02-07T07:24:23.210Z,13.15
2019-02-07T07:26:55.929Z,13.45
2019-02-07T07:29:27.915Z,14.30
2019-02-07T07:32:16.408Z,15.10
2019-02-07T07:34:48.596Z,14.93
2019-02-07T07:37:26.616Z,14.00
2019-02-07T07:40:04.539Z,15.40
2019-02-07T07:42:53.258Z,14.98
2019-02-07T07:45:41.740Z,14.23
2019-02-07T07:48:20.142Z,12.37
2019-02-07T07:50:52.403Z,14.50
2019-02-07T07:53:40.769Z,15.13
2019-02-07T07:56:12.766Z,12.45
2019-02-07T07:58:56.875Z,13.62
2019-02-07T08:01:38.212Z,13.05
2019-02-07T08:04:13.460Z,13.22
2019-02-07T08:07:01.768Z,12.35
2019-02-07T08:09:37.133Z,12.05
2019-02-07T08:12:24.332Z,11.25
2019-02-07T08:15:02.162Z,13.03
2019-02-07T08:17:46.826Z,13.22
2019-02-07T08:20:15.600Z,13.32
2019-02-07T08:22:48.129Z,12.63
2019-02-07T08:25:25.721Z,12.18
2019-02-07T08:28:00.586Z,12.60
2019-02-07T08:30:38.443Z,13.20
2019-02-07T08:33:26.295Z,12.60
2019-02-07T08:35:58.610Z,12.98
2019-02-07T08:38:33.496Z,13.50
2019-02-07T08:41:14.812Z,12.03
2019-02-07T08:43:52.681Z,12.45
2019-02-07T08:46:40.477Z,14.35
2019-02-07T08:49:12.778Z,13.88
2019-02-07T08:52:00.974Z,13.88
2019-02-07T08:54:38.870Z,12.50
2019-02-07T08:57:22.559Z,13.70
2019-02-07T08:59:54.689Z,13.00
2019-02-07T09:02:29.542Z,11.80
2019-02-07T09:05:07.604Z,13.83
2019-02-07T09:07:45.274Z,11.75
2019-02-07T09:10:35.065Z,13.13
2019-02-07T09:13:07.123Z,12.43
2019-02-07T09:15:41.926Z,11.80
2019-02-07T09:18:20.240Z,13.10
2019-02-07T09:21:01.067Z,12.15
2019-02-07T09:23:51.253Z,13.08
2019-02-07T09:26:35.022Z,12.47
2019-02-07T09:29:23.239Z,12.28
2019-02-07T09:32:11.351Z,13.00
2019-02-07T09:34:43.713Z,11.65
2019-02-07T09:37:18.865Z,12.55
2019-02-07T09:39:53.488Z,11.38
2019-02-07T09:42:31.589Z,12.80
2019-02-07T09:45:15.151Z,11.55
2019-02-07T09:47:59.178Z,12.13
2019-02-07T09:50:46.174Z,13.28
2019-02-07T09:53:24.096Z,11.00
2019-02-07T09:56:00.131Z,11.50
2019-02-07T09:58:48.285Z,10.50
2019-02-07T10:01:26.738Z,10.90
2019-02-07T10:04:04.562Z,11.45
2019-02-07T10:06:51.288Z,11.35
2019-02-07T10:09:38.415Z,10.10
2019-02-07T10:12:19.651Z,11.75
2019-02-07T10:15:04.162Z,11.03
2019-02-07T10:17:48.069Z,10.38
2019-02-07T10:20:37.437Z,10.50
2019-02-07T10:23:12.450Z,10.80
2019-02-07T10:25:51.422Z,10.43
2019-02-07T10:28:23.785Z,10.60
2019-02-07T10:31:07.653Z,12.15
2019-02-07T10:33:39.868Z,11.03
2019-02-07T10:36:21.089Z,11.10
2019-02-07T10:38:56.120Z,10.58
2019-02-07T10:41:39.542Z,10.85
2019-02-07T10:44:14.110Z,11.30
2019-02-07T10:46:46.173Z,9.75
2019-02-07T10:49:21.350Z,11.43
2019-02-07T10:52:08.117Z,10.82
2019-02-07T10:54:52.770Z,11.65
2019-02-07T10:57:37.327Z,10.43
2019-02-07T11:00:34.466Z,11.18
2019-02-07T11:03:09.295Z,10.35
2019-02-07T11:05:54.597Z,11.15
2019-02-07T11:08:29.365Z,10.70
2019-02-07T11:11:16.383Z,9.88
2019-02-07T11:13:54.255Z,10.23
2019-02-07T11:16:41.707Z,10.72
2019-02-07T11:19:21.514Z,8.88
2019-02-07T11:21:58.648Z,9.83
2019-02-07T11:24:46.909Z,10.30
2019-02-07T11:27:27.411Z,11.15
2019-02-07T11:29:59.448Z,9.30
2019-02-07T11:32:43.643Z,9.58
2019-02-07T11:35:24.716Z,10.13
2019-02-07T11:37:59.324Z,9.83
2019-02-07T11:40:41.350Z,10.80
2019-02-07T11:43:19.331Z,10.58
2019-02-07T11:45:51.632Z,9.73
2019-02-07T11:48:41.639Z,10.35
2019-02-07T11:51:22.414Z,10.72
2019-02-07T11:54:03.269Z,10.13
2019-02-07T11:56:41.345Z,9.93
2019-02-07T11:59:25.443Z,10.43
2019-02-07T12:02:09.089Z,9.38
2019-02-07T12:04:48.606Z,9.88
2019-02-07T12:07:36.854Z,9.80
2019-02-07T12:10:29.286Z,9.93
2019-02-07T12:13:04.261Z,9.90
2019-02-07T12:15:36.484Z,9.20
2019-02-07T12:18:20.276Z,9.63
2019-02-07T12:21:04.176Z,9.00
2019-02-07T12:23:52.681Z,10.82
2019-02-07T12:26:27.709Z,9.50
2019-02-07T12:29:02.529Z,10.03
2019-02-07T12:31:34.510Z,10.30
2019-02-07T12:34:09.425Z,9.60
2019-02-07T12:36:41.918Z,9.53
2019-02-07T12:39:19.827Z,9.58
2019-02-07T12:41:51.888Z,9.98
2019-02-07T12:44:27.459Z,9.15
2019-02-07T12:47:00.133Z,9.40
2019-02-07T12:49:35.108Z,9.83
2019-02-07T12:52:10.381Z,9.55
2019-02-07T12:54:54.463Z,9.00
2019-02-07T12:57:41.656Z,10.28
2019-02-07T13:00:35.830Z,9.28
2019-02-07T13:03:07.943Z,10.28
2019-02-07T13:05:40.149Z,9.40
2019-02-07T13:08:21.156Z,10.25
2019-02-07T13:10:59.017Z,10.88
2019-02-07T13:13:33.949Z,10.03
2019-02-07T13:16:17.839Z,10.08
2019-02-07T13:19:04.362Z,10.43
2019-02-07T13:21:42.130Z,9.78
2019-02-07T13:24:14.390Z,9.83
2019-02-07T13:27:02.817Z,10.45
2019-02-07T13:29:37.735Z,10.00
2019-02-07T13:32:27.681Z,9.98
2019-02-07T13:35:08.728Z,9.05
2019-02-07T13:37:55.862Z,11.45
2019-02-07T13:40:44.026Z,10.85
2019-02-07T13:43:19.220Z,9.58
2019-02-07T13:46:00.220Z,10.50
2019-02-07T13:48:48.076Z,9.80
2019-02-07T13:51:22.728Z,10.10
2019-02-07T13:54:03.124Z,10.43
2019-02-07T13:56:35.304Z,12.58
2019-02-07T13:59:10.033Z,9.25
2019-02-07T14:01:58.851Z,9.38
2019-02-07T14:04:31.086Z,9.20
2019-02-07T14:07:03.691Z,9.33
2019-02-07T14:09:50.746Z,9.18
2019-02-07T14:12:39.220Z,9.13
2019-02-07T14:15:12.998Z,9.53
2019-02-07T14:17:47.644Z,8.70
2019-02-07T14:20:28.745Z,7.97
2019-02-07T14:23:10.003Z,8.10
2019-02-07T14:25:57.053Z,8.53
2019-02-07T14:28:29.013Z,7.87
2019-02-07T14:31:00.995Z,8.23
2019-02-07T14:33:35.932Z,8.00
2019-02-07T14:36:07.917Z,8.50
2019-02-07T14:38:42.857Z,7.55
2019-02-07T14:41:32.633Z,8.03
2019-02-07T14:44:07.980Z,7.45
2019-02-07T14:46:50.462Z,8.53
2019-02-07T14:49:20.794Z,8.30
2019-02-07T14:51:51.143Z,9.33
2019-02-07T14:54:23.417Z,8.95
2019-02-07T14:56:54.064Z,7.40
2019-02-07T14:59:24.374Z,9.03
2019-02-07T15:01:54.720Z,9.23
2019-02-07T15:04:25.074Z,9.30
2019-02-07T15:06:55.694Z,8.60
2019-02-07T15:09:26.042Z,8.50
2019-02-07T15:11:56.723Z,7.17
2019-02-07T15:14:27.065Z,9.05
2019-02-07T15:16:57.438Z,9.55
2019-02-07T15:19:27.800Z,9.48
2019-02-07T15:21:58.767Z,8.40
2019-02-07T15:24:29.373Z,8.85
2019-02-07T15:26:59.767Z,7.65
2019-02-07T15:29:30.391Z,8.85
2019-02-07T15:32:01.004Z,9.60
2019-02-07T15:34:31.665Z,9.95
2019-02-07T15:37:02.260Z,7.80
2019-02-07T15:39:32.877Z,8.25
2019-02-07T15:42:03.374Z,8.43
2019-02-07T15:44:33.721Z,8.23
2019-02-07T15:47:04.478Z,8.60
2019-02-07T15:49:34.944Z,8.33
2019-02-07T15:52:05.565Z,8.70
2019-02-07T15:54:36.584Z,10.58
2019-02-07T15:57:07.308Z,9.38
2019-02-07T15:59:39.215Z,8.03
2019-02-07T16:02:11.453Z,8.85
2019-02-07T16:04:41.823Z,9.78
2019-02-07T16:07:12.170Z,9.73
2019-02-07T16:09:42.772Z,10.48
2019-02-07T16:12:13.176Z,10.18
2019-02-07T16:14:43.807Z,10.45
2019-02-07T16:17:14.157Z,11.63
2019-02-07T16:19:44.819Z,8.78
2019-02-07T16:22:15.452Z,9.60
2019-02-07T16:24:46.131Z,9.90
2019-02-07T16:27:16.521Z,9.45
2019-02-07T16:29:47.112Z,9.85
2019-02-07T16:32:17.428Z,10.48
2019-02-07T16:34:47.767Z,9.85
2019-02-07T16:37:18.431Z,9.23
2019-02-07T16:39:48.756Z,9.50
2019-02-07T16:42:19.757Z,9.53
2019-02-07T16:44:50.132Z,10.13
2019-02-07T16:47:20.441Z,10.88
2019-02-07T16:49:50.794Z,10.48
2019-02-07T16:52:21.455Z,10.60
2019-02-07T16:54:51.803Z,10.85
2019-02-07T16:57:22.512Z,10.93
2019-02-07T16:59:53.122Z,11.12
2019-02-07T17:02:23.561Z,9.95
2019-02-07T17:04:53.983Z,10.70
2019-02-07T17:07:24.602Z,10.25
2019-02-07T17:09:55.467Z,11.00
2019-02-07T17:12:25.830Z,10.40
2019-02-07T17:14:56.435Z,10.10
2019-02-07T17:17:27.038Z,10.80
2019-02-07T17:19:57.701Z,13.10
2019-02-07T17:22:28.123Z,11.60
2019-02-07T17:24:58.509Z,11.10
2019-02-07T17:27:29.191Z,11.33
2019-02-07T17:29:59.546Z,11.15
2019-02-07T17:32:30.473Z,10.80
2019-02-07T17:35:00.831Z,11.08
2019-02-07T17:37:31.905Z,11.83
2019-02-07T17:40:02.795Z,10.80
2019-02-07T17:42:33.674Z,11.48
2019-02-07T17:45:05.465Z,11.43
2019-02-07T17:47:35.825Z,11.97
2019-02-07T17:50:11.183Z,15.70
2019-02-07T17:52:41.534Z,14.43
2019-02-07T17:55:16.172Z,13.40
2019-02-07T17:57:46.944Z,13.48
2019-02-07T18:00:23.208Z,11.97
2019-02-07T18:02:53.970Z,11.73
2019-02-07T18:05:24.313Z,12.43
2019-02-07T18:07:55.011Z,12.53
2019-02-07T18:10:25.381Z,13.32
2019-02-07T18:12:55.961Z,12.55
2019-02-07T18:15:26.953Z,11.65
2019-02-07T18:17:57.321Z,12.78
2019-02-07T18:20:27.912Z,11.70
2019-02-07T18:22:58.630Z,13.15
2019-02-07T18:25:28.990Z,12.30
2019-02-07T18:27:59.629Z,13.32
2019-02-07T18:30:30.264Z,13.78
2019-02-07T18:33:00.981Z,14.23
2019-02-07T18:35:31.581Z,12.85
2019-02-07T18:38:01.935Z,14.35
2019-02-07T18:40:33.197Z,13.72
2019-02-07T18:43:04.231Z,14.78
2019-02-07T18:45:34.816Z,13.13
2019-02-07T18:48:05.448Z,14.15
2019-02-07T18:50:37.974Z,13.18
2019-02-07T18:53:08.330Z,14.00
2019-02-07T18:55:38.700Z,16.00
2019-02-07T18:58:09.426Z,14.98
2019-02-07T19:00:39.758Z,15.93
2019-02-07T19:03:10.116Z,16.30
2019-02-07T19:05:41.179Z,15.80
2019-02-07T19:08:12.103Z,15.53
2019-02-07T19:10:42.760Z,14.95
2019-02-07T19:13:13.674Z,14.58
2019-02-07T19:15:54.676Z,16.50
2019-02-07T19:18:25.053Z,15.88
2019-02-07T19:20:55.641Z,14.75
2019-02-07T19:23:26.188Z,14.40
2019-02-07T19:25:56.508Z,15.20
2019-02-07T19:28:27.420Z,13.75
2019-02-07T19:30:57.948Z,16.23
2019-02-07T19:33:28.831Z,16.48
2019-02-07T19:35:59.177Z,16.35
2019-02-07T19:38:32.768Z,16.62
2019-02-07T19:41:02.166Z,16.02
2019-02-07T19:43:32.760Z,15.63
2019-02-07T19:46:03.648Z,16.05
2019-02-07T19:48:33.988Z,17.05
2019-02-07T19:51:04.590Z,16.82
2019-02-07T19:53:34.987Z,17.05
2019-02-07T19:56:05.407Z,15.68
2019-02-07T19:58:36.016Z,24.77
2019-02-07T20:01:06.696Z,18.82
2019-02-07T20:03:37.075Z,17.25
2019-02-07T20:06:07.415Z,16.93
2019-02-07T20:08:38.292Z,17.60
2019-02-07T20:11:08.647Z,16.97
2019-02-07T20:13:38.998Z,17.05
2019-02-07T20:16:09.648Z,16.85
2019-02-07T20:18:40.557Z,18.70
2019-02-07T20:21:11.343Z,16.60
2019-02-07T20:23:42.023Z,16.15
2019-02-07T20:26:12.363Z,17.02
2019-02-07T20:28:42.954Z,17.80
2019-02-07T20:31:13.317Z,17.92
2019-02-07T20:33:43.931Z,17.80
2019-02-07T20:36:14.252Z,17.60
2019-02-07T20:38:44.748Z,18.07
2019-02-07T20:41:15.274Z,18.55
2019-02-07T20:43:45.867Z,18.07
2019-02-07T20:46:16.233Z,18.37
2019-02-07T20:48:47.183Z,18.37
2019-02-07T20:51:17.785Z,18.90
2019-02-07T20:53:48.466Z,18.10
2019-02-07T20:56:19.530Z,19.17
2019-02-07T20:58:49.845Z,17.62
2019-02-07T21:01:20.359Z,17.70
2019-02-07T21:03:51.009Z,17.30
2019-02-07T21:06:21.346Z,18.90
2019-02-07T21:08:51.730Z,17.42
2019-02-07T21:11:22.376Z,17.00
2019-02-07T21:13:52.757Z,18.35
2019-02-07T21:16:23.617Z,16.67
2019-02-07T21:18:54.247Z,18.20
2019-02-07T21:21:24.887Z,19.65
2019-02-07T21:23:55.230Z,18.27
2019-02-07T21:26:25.811Z,18.25
2019-02-07T21:28:56.631Z,18.48
2019-02-07T21:31:27.284Z,18.35
2019-02-07T21:33:58.247Z,16.85
2019-02-07T21:36:28.589Z,19.65
2019-02-07T21:38:59.202Z,19.50
2019-02-07T21:41:29.550Z,18.90
2019-02-07T21:44:00.485Z,21.05
2019-02-07T21:46:31.352Z,18.05
2019-02-07T21:49:01.982Z,19.12
2019-02-07T21:51:32.353Z,19.23
2019-02-07T21:54:02.700Z,20.12
2019-02-07T21:56:33.053Z,19.17
2019-02-07T21:59:03.469Z,20.08
2019-02-07T22:01:34.094Z,19.55
2019-02-07T22:04:05.051Z,20.35
2019-02-07T22:06:35.816Z,18.52
2019-02-07T22:09:10.509Z,20.00
2019-02-07T22:11:41.124Z,17.70
2019-02-07T22:14:11.782Z,18.52
2019-02-07T22:16:42.920Z,19.48
2019-02-07T22:19:13.802Z,19.70
2019-02-07T22:21:44.155Z,19.92
2019-02-07T22:24:14.507Z,19.48
2019-02-07T22:26:44.852Z,18.30
2019-02-07T22:29:15.263Z,22.05
2019-02-07T22:31:45.868Z,19.02
2019-02-07T22:34:16.568Z,18.77
2019-02-07T22:36:47.529Z,20.12
2019-02-07T22:39:17.861Z,18.70
2019-02-07T22:41:49.124Z,18.55
2019-02-07T22:44:20.156Z,19.05
2019-02-07T22:46:50.485Z,19.67
2019-02-07T22:49:21.112Z,19.70
2019-02-07T22:51:51.745Z,21.00
2019-02-07T22:54:22.366Z,18.37
2019-02-07T22:56:52.958Z,19.77
2019-02-07T22:59:23.359Z,21.42
2019-02-07T23:01:54.049Z,20.00
2019-02-07T23:04:24.959Z,19.60
2019-02-07T23:06:55.346Z,18.23
2019-02-07T23:09:25.964Z,19.32
2019-02-07T23:11:56.724Z,22.02
2019-02-07T23:14:27.660Z,20.77
2019-02-07T23:16:58.381Z,20.43
2019-02-07T23:19:29.004Z,19.55
2019-02-07T23:21:59.683Z,18.77
2019-02-07T23:24:30.015Z,17.70
2019-02-07T23:27:00.342Z,19.30
2019-02-07T23:29:30.984Z,19.23
2019-02-07T23:32:01.314Z,17.95
2019-02-07T23:34:31.939Z,19.17
2019-02-07T23:37:02.591Z,18.67
2019-02-07T23:39:33.724Z,19.20
2019-02-07T23:42:04.145Z,18.07
2019-02-07T23:44:34.779Z,18.48
2019-02-07T23:47:05.107Z,17.70
2019-02-07T23:49:35.700Z,19.98
2019-02-07T23:52:06.319Z,19.60
2019-02-07T23:54:36.827Z,19.45
2019-02-07T23:57:07.710Z,17.48
2019-02-07T23:59:38.747Z,18.27
